Time;durP1;ratioP1;P1;durP2;ratioP2;P2;SDS_P1;SDS_P2;PMS_P1;PMS_P2;Temp;Humidity;BMP_temperature;BMP_pressure;BME280_temperature;BME280_humidity;BME280_pressure;Samples;Min_cycle;Max_cycle;Signal;HPM_P1;HPM_P2
2022/01/18 00:01:16;;;;;;;1.60;1.30;;;6.90;98.20;;;;;;4979266;28;20610;-77
2022/01/18 00:03:43;;;;;;;1.60;1.20;;;6.90;98.20;;;;;;4985437;28;20465;-75
2022/01/18 00:06:10;;;;;;;1.67;1.30;;;6.90;98.20;;;;;;4965228;28;20485;-76
2022/01/18 00:08:39;;;;;;;1.67;1.30;;;6.90;98.20;;;;;;4984628;28;20726;-76
2022/01/18 00:11:06;;;;;;;1.60;1.30;;;6.90;98.20;;;;;;4977493;28;20470;-76
2022/01/18 00:13:42;;;;;;;1.63;1.30;;;6.90;98.20;;;;;;4988745;28;20465;-78
2022/01/18 00:16:27;;;;;;;1.70;1.40;;;6.90;98.20;;;;;;4973745;28;20575;-74
2022/01/18 00:18:55;;;;;;;1.60;1.20;;;6.90;98.20;;;;;;4981591;28;20470;-78
2022/01/18 00:21:31;;;;;;;1.63;1.30;;;6.90;98.20;;;;;;4981483;28;20992;-78
2022/01/18 00:23:59;;;;;;;1.67;1.30;;;6.90;98.20;;;;;;4991062;28;20461;-76
2022/01/18 00:26:30;;;;;;;1.60;1.30;;;6.90;98.20;;;;;;4983259;28;20492;-78
2022/01/18 00:29:07;;;;;;;1.60;1.30;;;6.90;98.20;;;;;;4981773;28;20474;-75
2022/01/18 00:34:23;;;;;;;1.70;1.30;;;6.90;98.20;;;;;;4978462;28;20552;-75
2022/01/18 00:36:57;;;;;;;1.60;1.20;;;6.90;98.20;;;;;;4979815;28;20515;-77
2022/01/18 00:39:25;;;;;;;1.67;1.30;;;6.90;98.20;;;;;;4989349;28;20474;-76
2022/01/18 00:41:53;;;;;;;1.60;1.20;;;6.90;98.20;;;;;;4977698;28;20476;-78
2022/01/18 00:44:19;;;;;;;1.70;1.40;;;6.90;98.20;;;;;;4986231;28;20525;-74
2022/01/18 00:46:46;;;;;;;1.60;1.30;;;7.00;98.20;;;;;;4980300;28;20569;-74
2022/01/18 00:49:14;;;;;;;1.60;1.20;;;7.00;98.20;;;;;;4979239;28;21079;-76
2022/01/18 00:51:44;;;;;;;1.60;1.30;;;7.00;98.20;;;;;;4984067;28;20489;-76
2022/01/18 00:54:20;;;;;;;1.70;1.30;;;7.00;98.20;;;;;;4994993;28;20470;-76
2022/01/18 00:56:51;;;;;;;1.60;1.30;;;7.00;98.20;;;;;;4977446;28;20903;-78
2022/01/18 00:59:18;;;;;;;1.63;1.20;;;7.00;98.20;;;;;;4997008;28;20578;-78
2022/01/18 01:01:45;;;;;;;1.60;1.30;;;7.00;98.20;;;;;;4973830;28;20540;-77
2022/01/18 01:04:12;;;;;;;1.67;1.30;;;7.00;98.20;;;;;;4979038;28;20567;-76
2022/01/18 01:06:39;;;;;;;1.60;1.27;;;7.00;98.20;;;;;;4980464;28;20551;-75
2022/01/18 01:09:06;;;;;;;1.63;1.33;;;7.00;98.20;;;;;;4982239;28;20457;-77
2022/01/18 01:11:37;;;;;;;1.67;1.33;;;7.00;98.20;;;;;;4972461;28;21087;-76
2022/01/18 01:14:09;;;;;;;1.70;1.40;;;7.00;98.20;;;;;;4990153;28;20462;-76
2022/01/18 01:19:29;;;;;;;1.70;1.30;;;7.00;98.20;;;;;;4980695;28;20859;-77
2022/01/18 01:33:39;;;;;;;1.67;1.30;;;7.00;98.20;;;;;;4989664;28;20530;-78
2022/01/18 01:36:16;;;;;;;1.60;1.30;;;7.00;98.20;;;;;;4981259;28;20517;-77
2022/01/18 01:44:26;;;;;;;1.60;1.30;;;7.00;98.20;;;;;;4939824;29;20463;-77
2022/01/18 01:46:55;;;;;;;1.70;1.40;;;7.00;98.20;;;;;;4976574;28;20495;-77
2022/01/18 01:49:23;;;;;;;1.70;1.33;;;7.00;98.20;;;;;;4984598;28;21215;-76
2022/01/18 01:51:50;;;;;;;1.70;1.30;;;7.00;98.20;;;;;;4985553;28;20488;-78
2022/01/18 01:54:17;;;;;;;1.63;1.27;;;6.90;98.20;;;;;;4989732;28;20474;-77
2022/01/18 01:56:44;;;;;;;1.63;1.20;;;6.90;98.20;;;;;;4985119;28;20496;-76
2022/01/18 01:59:11;;;;;;;1.67;1.30;;;7.00;98.20;;;;;;4986098;28;20475;-78
2022/01/18 02:01:45;;;;;;;1.60;1.20;;;7.00;98.20;;;;;;4983956;28;20579;-78
2022/01/18 02:04:14;;;;;;;1.70;1.40;;;6.90;98.20;;;;;;4979219;28;20516;-78
2022/01/18 02:06:41;;;;;;;1.63;1.30;;;6.90;98.20;;;;;;4984103;28;20489;-78
2022/01/18 02:09:09;;;;;;;1.70;1.30;;;6.90;98.20;;;;;;4982983;28;20473;-76
2022/01/18 02:11:36;;;;;;;1.70;1.30;;;6.90;98.20;;;;;;4985570;28;20608;-77
2022/01/18 02:14:05;;;;;;;1.70;1.30;;;6.90;98.20;;;;;;5001605;28;20478;-76
2022/01/18 02:22:08;;;;;;;1.60;1.20;;;6.90;98.20;;;;;;4978013;28;20480;-80
2022/01/18 02:24:38;;;;;;;1.63;1.30;;;6.90;98.20;;;;;;4984039;28;20461;-78
2022/01/18 02:27:06;;;;;;;1.67;1.30;;;6.90;98.20;;;;;;4986412;28;20485;-78
2022/01/18 02:29:33;;;;;;;1.70;1.30;;;6.90;98.20;;;;;;4990429;28;20496;-76
2022/01/18 02:32:00;;;;;;;1.60;1.20;;;6.90;98.20;;;;;;4976154;28;20499;-77
2022/01/18 02:34:27;;;;;;;1.60;1.20;;;6.90;98.20;;;;;;4980281;28;20497;-77
2022/01/18 02:36:57;;;;;;;1.60;1.20;;;6.90;98.20;;;;;;4975084;28;20477;-79
2022/01/18 02:39:27;;;;;;;1.67;1.30;;;6.90;98.20;;;;;;4988584;28;20496;-77
2022/01/18 02:42:00;;;;;;;1.70;1.40;;;6.90;98.20;;;;;;4979686;28;20481;-75
2022/01/18 02:44:28;;;;;;;1.60;1.27;;;6.90;98.20;;;;;;4993157;28;20501;-76
2022/01/18 02:46:55;;;;;;;1.63;1.30;;;6.90;98.20;;;;;;4976241;28;20920;-77
2022/01/18 02:49:23;;;;;;;1.60;1.30;;;6.90;98.20;;;;;;4980011;28;20466;-76
2022/01/18 02:51:50;;;;;;;1.60;1.20;;;6.90;98.20;;;;;;4974859;28;20564;-75
2022/01/18 02:54:21;;;;;;;1.60;1.27;;;6.90;98.20;;;;;;4987347;28;20977;-75
2022/01/18 02:56:54;;;;;;;1.70;1.30;;;6.90;98.20;;;;;;4981709;28;20890;-75
2022/01/18 02:59:32;;;;;;;1.60;1.20;;;6.90;98.20;;;;;;4981153;28;20462;-75
2022/01/18 03:04:46;;;;;;;1.70;1.33;;;6.90;98.20;;;;;;4991061;28;20550;-77
2022/01/18 03:07:14;;;;;;;1.70;1.47;;;6.80;98.20;;;;;;4984549;28;20547;-76
2022/01/18 03:09:41;;;;;;;1.60;1.30;;;6.80;98.20;;;;;;4977772;28;20532;-78
2022/01/18 03:12:10;;;;;;;1.70;1.40;;;6.80;98.20;;;;;;4989466;28;20568;-78
2022/01/18 03:14:38;;;;;;;1.60;1.20;;;6.80;98.20;;;;;;4985978;28;20465;-77
2022/01/18 03:17:06;;;;;;;1.60;1.20;;;6.80;98.20;;;;;;4992718;28;20491;-78
2022/01/18 03:19:33;;;;;;;1.63;1.20;;;6.80;98.20;;;;;;4980431;28;20840;-77
2022/01/18 03:22:00;;;;;;;1.70;1.30;;;6.80;98.20;;;;;;4978617;28;20958;-77
2022/01/18 03:24:46;;;;;;;1.60;1.30;;;6.80;98.20;;;;;;4996712;28;20464;-77
2022/01/18 03:30:02;;;;;;;1.70;1.40;;;6.80;98.20;;;;;;4983932;28;20593;-78
2022/01/18 03:32:28;;;;;;;1.60;1.23;;;6.80;98.20;;;;;;4979988;28;20531;-76
2022/01/18 03:34:55;;;;;;;1.60;1.20;;;6.80;98.20;;;;;;4989805;28;20493;-75
2022/01/18 03:37:22;;;;;;;1.60;1.30;;;6.80;98.20;;;;;;4987067;28;21908;-77
2022/01/18 03:39:49;;;;;;;1.70;1.37;;;6.80;98.20;;;;;;4983351;28;20472;-79
2022/01/18 03:45:04;;;;;;;1.67;1.30;;;6.80;98.20;;;;;;4974172;28;20477;-77
2022/01/18 03:47:34;;;;;;;1.60;1.20;;;6.80;98.20;;;;;;4984749;28;20495;-77
2022/01/18 03:50:02;;;;;;;1.60;1.30;;;6.80;98.20;;;;;;4973925;28;20552;-76
2022/01/18 03:52:29;;;;;;;1.70;1.30;;;6.80;98.20;;;;;;4990428;28;20487;-76
2022/01/18 03:54:57;;;;;;;1.60;1.30;;;6.80;98.20;;;;;;4988504;28;20500;-77
2022/01/18 03:57:25;;;;;;;1.60;1.20;;;6.80;98.20;;;;;;4982880;28;20555;-77
2022/01/18 03:59:52;;;;;;;1.63;1.27;;;6.80;98.20;;;;;;4993276;28;20457;-76
2022/01/18 04:02:19;;;;;;;1.60;1.20;;;6.70;98.20;;;;;;4981304;28;20536;-76
2022/01/18 04:04:46;;;;;;;1.70;1.33;;;6.70;98.20;;;;;;4990395;28;20547;-77
2022/01/18 04:07:13;;;;;;;1.60;1.30;;;6.70;98.20;;;;;;4995067;28;20563;-75
2022/01/18 04:09:40;;;;;;;1.60;1.30;;;6.70;98.20;;;;;;4977533;28;20462;-79
2022/01/18 04:12:08;;;;;;;1.63;1.30;;;6.70;98.20;;;;;;4989605;28;20491;-79
2022/01/18 04:14:36;;;;;;;1.67;1.30;;;6.70;98.20;;;;;;4985879;28;20474;-73
2022/01/18 04:17:11;;;;;;;1.63;1.20;;;6.70;98.20;;;;;;4976310;28;20477;-75
2022/01/18 04:28:03;;;;;;;1.70;1.47;;;6.70;98.20;;;;;;4982563;28;20480;-79
2022/01/18 04:30:32;;;;;;;1.63;1.30;;;6.70;98.20;;;;;;4976783;28;21012;-75
2022/01/18 04:32:59;;;;;;;1.70;1.40;;;6.70;98.20;;;;;;4994199;28;20705;-77
2022/01/18 04:35:26;;;;;;;1.60;1.20;;;6.70;98.20;;;;;;4999576;28;21083;-75
2022/01/18 04:37:53;;;;;;;1.67;1.37;;;6.70;98.20;;;;;;4990981;28;20560;-78
2022/01/18 04:40:26;;;;;;;1.70;1.50;;;6.70;98.20;;;;;;4977405;28;20544;-78
2022/01/18 04:43:10;;;;;;;1.63;1.30;;;6.70;98.20;;;;;;4988540;28;20962;-79
2022/01/18 04:48:31;;;;;;;1.63;1.30;;;6.70;98.20;;;;;;4964885;28;20484;-76
2022/01/18 04:51:00;;;;;;;1.70;1.60;;;6.70;98.20;;;;;;4980879;28;20523;-76
2022/01/18 04:53:30;;;;;;;1.60;1.30;;;6.70;98.20;;;;;;5004524;28;20838;-78
2022/01/18 04:56:00;;;;;;;1.70;1.47;;;6.60;98.20;;;;;;4983935;28;20496;-76
2022/01/18 04:58:28;;;;;;;1.70;1.30;;;6.60;98.20;;;;;;5000553;28;20464;-77
2022/01/18 05:00:59;;;;;;;1.70;1.30;;;6.60;98.20;;;;;;4989400;28;21012;-78
2022/01/18 05:03:26;;;;;;;1.60;1.20;;;6.60;98.20;;;;;;5011120;28;20474;-77
2022/01/18 05:05:56;;;;;;;2.33;2.13;;;6.60;98.20;;;;;;4982137;28;20499;-79
2022/01/18 05:08:24;;;;;;;1.60;1.30;;;6.60;98.20;;;;;;4987752;28;20505;-76
2022/01/18 05:10:55;;;;;;;1.60;1.20;;;6.60;98.20;;;;;;4971875;28;20470;-76
2022/01/18 05:16:30;;;;;;;1.70;1.40;;;6.60;98.20;;;;;;4962948;28;20477;-79
2022/01/18 05:19:10;;;;;;;1.67;1.33;;;6.60;98.20;;;;;;4989459;28;20666;-78
2022/01/18 05:22:57;;;;;;;1.70;1.30;;;6.60;98.20;;;;;;4981064;28;20472;-77
2022/01/18 05:24:29;;;;;;;1.60;1.30;;;6.60;98.20;;;;;;4998279;28;20500;-77
2022/01/18 05:26:57;;;;;;;1.70;1.30;;;6.60;98.20;;;;;;4988428;28;20540;-77
2022/01/18 05:29:25;;;;;;;1.70;1.40;;;6.60;98.20;;;;;;4998284;28;20473;-78
2022/01/18 05:31:53;;;;;;;1.60;1.30;;;6.60;98.20;;;;;;4979152;28;20945;-74
2022/01/18 05:34:20;;;;;;;1.70;1.37;;;6.60;98.20;;;;;;4987981;28;21239;-75
2022/01/18 05:36:47;;;;;;;1.60;1.20;;;6.50;98.20;;;;;;5009412;23;20869;-72
2022/01/18 05:39:14;;;;;;;1.70;1.40;;;6.50;98.20;;;;;;5000576;28;20861;-74
2022/01/18 05:41:42;;;;;;;1.70;1.40;;;6.50;98.20;;;;;;4978391;28;20539;-75
2022/01/18 05:44:10;;;;;;;1.63;1.30;;;6.50;98.20;;;;;;4999400;28;20987;-72
2022/01/18 05:46:37;;;;;;;1.70;1.50;;;6.50;98.20;;;;;;4980339;28;20484;-75
2022/01/18 05:49:05;;;;;;;1.63;1.30;;;6.50;98.20;;;;;;4981875;28;20822;-74
2022/01/18 05:51:33;;;;;;;1.63;1.30;;;6.50;98.20;;;;;;4986255;28;20486;-74
2022/01/18 05:54:00;;;;;;;1.70;1.40;;;6.50;98.20;;;;;;5011307;28;20882;-75
2022/01/18 05:56:27;;;;;;;1.63;1.33;;;6.40;98.20;;;;;;4982338;28;20840;-75
2022/01/18 05:58:56;;;;;;;1.60;1.30;;;6.40;98.20;;;;;;4994871;28;20473;-75
2022/01/18 06:01:27;;;;;;;1.67;1.30;;;6.40;98.20;;;;;;4982681;28;20499;-75
2022/01/18 06:04:08;;;;;;;1.87;1.67;;;6.40;98.20;;;;;;5006242;28;20978;-73
2022/01/18 06:06:51;;;;;;;1.63;1.30;;;6.40;98.20;;;;;;4984263;28;20491;-73
2022/01/18 06:09:18;;;;;;;1.60;1.20;;;6.40;98.20;;;;;;4997420;28;20623;-73
2022/01/18 06:11:45;;;;;;;1.70;1.40;;;6.40;98.20;;;;;;4980228;28;20503;-73
2022/01/18 06:14:12;;;;;;;1.70;1.40;;;6.40;98.20;;;;;;4990877;28;20490;-72
2022/01/18 06:16:39;;;;;;;1.60;1.30;;;6.40;98.20;;;;;;4981034;28;20997;-73
2022/01/18 06:19:06;;;;;;;1.70;1.40;;;6.40;98.20;;;;;;4991081;28;20481;-72
2022/01/18 06:21:33;;;;;;;1.70;1.40;;;6.40;98.20;;;;;;4981648;28;20509;-73
2022/01/18 06:24:01;;;;;;;1.63;1.30;;;6.40;98.20;;;;;;5002020;28;20523;-73
2022/01/18 06:26:28;;;;;;;1.60;1.30;;;6.40;98.20;;;;;;4982228;28;20483;-73
2022/01/18 06:28:55;;;;;;;1.67;1.30;;;6.40;98.20;;;;;;4994121;28;20812;-72
2022/01/18 06:31:22;;;;;;;1.60;1.20;;;6.40;98.20;;;;;;4971166;28;20476;-73
2022/01/18 06:33:49;;;;;;;1.67;1.30;;;6.30;98.20;;;;;;5007367;28;20458;-73
2022/01/18 06:36:16;;;;;;;1.70;1.40;;;6.30;98.20;;;;;;4974085;28;20553;-73
2022/01/18 06:38:42;;;;;;;1.67;1.30;;;6.30;98.20;;;;;;4991720;28;20464;-73
2022/01/18 06:41:11;;;;;;;1.60;1.30;;;6.30;98.20;;;;;;4978749;28;21001;-72
2022/01/18 06:43:38;;;;;;;1.60;1.30;;;6.30;98.20;;;;;;5005932;28;20517;-72
2022/01/18 06:46:05;;;;;;;1.63;1.30;;;6.30;98.20;;;;;;4972293;28;20480;-72
2022/01/18 06:48:31;;;;;;;1.60;1.30;;;6.30;98.20;;;;;;4993414;28;20476;-73
2022/01/18 06:50:58;;;;;;;1.60;1.30;;;6.30;98.20;;;;;;4969825;28;20815;-72
2022/01/18 06:53:31;;;;;;;1.70;1.40;;;6.30;98.20;;;;;;4996331;28;20456;-73
2022/01/18 06:55:57;;;;;;;1.60;1.30;;;6.30;98.20;;;;;;4971723;28;20968;-73
2022/01/18 06:58:26;;;;;;;1.63;1.30;;;6.30;98.20;;;;;;5007804;28;20504;-72
2022/01/18 07:00:52;;;;;;;1.63;1.30;;;6.30;98.20;;;;;;4968860;28;20460;-73
2022/01/18 07:03:20;;;;;;;1.70;1.40;;;6.30;98.20;;;;;;4990011;28;20495;-73
2022/01/18 07:05:47;;;;;;;1.60;1.20;;;6.30;98.20;;;;;;4977537;28;20926;-73
2022/01/18 07:08:13;;;;;;;1.67;1.30;;;6.30;98.20;;;;;;4968695;28;20488;-73
2022/01/18 07:10:40;;;;;;;1.60;1.30;;;6.30;98.20;;;;;;4978730;28;20988;-71
2022/01/18 07:13:08;;;;;;;1.70;1.40;;;6.30;98.20;;;;;;4999754;28;21149;-71
2022/01/18 07:15:36;;;;;;;1.63;1.30;;;6.30;98.20;;;;;;4980198;28;20469;-71
2022/01/18 07:18:05;;;;;;;1.63;1.30;;;6.40;98.20;;;;;;4987223;28;20476;-71
2022/01/18 07:20:32;;;;;;;1.60;1.30;;;6.30;98.20;;;;;;4979912;28;20468;-71
2022/01/18 07:23:00;;;;;;;1.70;1.40;;;6.30;98.20;;;;;;5001229;28;20486;-70
2022/01/18 07:25:27;;;;;;;1.60;1.30;;;6.30;98.20;;;;;;4969473;28;20500;-71
2022/01/18 07:27:53;;;;;;;1.67;1.37;;;6.30;98.20;;;;;;4999322;28;20908;-71
2022/01/18 07:30:20;;;;;;;1.70;1.40;;;6.30;98.20;;;;;;4973968;28;20470;-70
2022/01/18 07:32:48;;;;;;;1.67;1.30;;;6.30;98.20;;;;;;4997358;28;20479;-71
2022/01/18 07:35:15;;;;;;;1.70;1.40;;;6.30;98.20;;;;;;4973964;28;20466;-71
2022/01/18 07:37:43;;;;;;;1.70;1.30;;;6.30;98.20;;;;;;4995790;28;20492;-71
2022/01/18 07:40:10;;;;;;;1.60;1.30;;;6.30;98.20;;;;;;4971281;28;21148;-72
2022/01/18 07:42:37;;;;;;;1.70;1.43;;;6.30;98.20;;;;;;4976962;28;21258;-71
2022/01/18 07:45:05;;;;;;;1.60;1.30;;;6.40;98.20;;;;;;4979103;28;20472;-71
2022/01/18 07:47:33;;;;;;;1.60;1.30;;;6.40;98.20;;;;;;4977900;28;20481;-71
2022/01/18 07:50:01;;;;;;;1.60;1.27;;;6.40;98.20;;;;;;4975330;28;20472;-71
2022/01/18 07:52:29;;;;;;;1.67;1.30;;;6.40;98.20;;;;;;4993618;28;20480;-71
2022/01/18 07:54:56;;;;;;;1.67;1.30;;;6.40;98.20;;;;;;4982539;28;21341;-71
2022/01/18 07:57:23;;;;;;;1.60;1.27;;;6.40;98.20;;;;;;4988352;28;20495;-72
2022/01/18 07:59:49;;;;;;;1.60;1.30;;;6.40;98.20;;;;;;4986245;28;20460;-71
2022/01/18 08:02:16;;;;;;;1.70;1.30;;;6.40;98.20;;;;;;4990182;28;20494;-72
2022/01/18 08:04:43;;;;;;;1.60;1.20;;;6.40;98.20;;;;;;4983503;28;20471;-72
2022/01/18 08:07:11;;;;;;;1.67;1.30;;;6.40;98.20;;;;;;4983060;28;20503;-71
2022/01/18 08:09:38;;;;;;;1.60;1.33;;;6.40;98.20;;;;;;4977502;28;20466;-71
2022/01/18 08:12:06;;;;;;;1.63;1.30;;;6.50;98.20;;;;;;4986500;28;20992;-71
2022/01/18 08:14:33;;;;;;;1.60;1.30;;;6.50;98.20;;;;;;4988637;28;20465;-72
2022/01/18 08:17:02;;;;;;;1.67;1.30;;;6.50;98.20;;;;;;4982860;28;20482;-72
2022/01/18 08:19:30;;;;;;;1.70;1.43;;;6.50;98.20;;;;;;4986215;28;20471;-72
2022/01/18 08:21:57;;;;;;;1.70;1.30;;;6.60;98.20;;;;;;4983604;28;20472;-72
2022/01/18 08:24:26;;;;;;;1.60;1.30;;;6.60;98.20;;;;;;4994107;28;20470;-72
2022/01/18 08:26:54;;;;;;;1.60;1.30;;;6.60;98.20;;;;;;4972164;28;20981;-71
2022/01/18 08:29:21;;;;;;;1.60;1.30;;;6.60;98.20;;;;;;4994191;28;20465;-71
2022/01/18 08:31:48;;;;;;;1.60;1.30;;;6.70;98.20;;;;;;4981978;28;20483;-71
2022/01/18 08:34:15;;;;;;;1.70;1.40;;;6.70;98.20;;;;;;4999495;28;20460;-71
2022/01/18 08:36:42;;;;;;;1.70;1.47;;;6.70;98.20;;;;;;4977971;28;20492;-72
2022/01/18 08:39:10;;;;;;;1.60;1.20;;;6.80;98.20;;;;;;4994017;28;20465;-71
2022/01/18 08:41:38;;;;;;;1.60;1.30;;;6.80;98.20;;;;;;4974562;28;20475;-71
2022/01/18 08:44:07;;;;;;;1.67;1.27;;;6.80;98.20;;;;;;4983477;28;20501;-72
2022/01/18 08:46:34;;;;;;;1.60;1.20;;;6.80;98.20;;;;;;4976057;28;20492;-72
2022/01/18 08:49:02;;;;;;;1.60;1.27;;;6.90;98.20;;;;;;5002080;28;20467;-71
2022/01/18 08:51:28;;;;;;;1.67;1.30;;;6.90;98.20;;;;;;4982055;28;20481;-71
2022/01/18 08:53:55;;;;;;;1.67;1.30;;;6.90;98.20;;;;;;4998181;28;20469;-71
2022/01/18 08:56:22;;;;;;;1.63;1.20;;;7.00;98.20;;;;;;4973337;28;20490;-71
2022/01/18 08:58:51;;;;;;;1.60;1.23;;;7.00;98.20;;;;;;4988860;28;21108;-72
2022/01/18 09:01:18;;;;;;;1.63;1.20;;;7.00;98.20;;;;;;4973203;28;20480;-72
2022/01/18 09:03:45;;;;;;;1.60;1.20;;;7.10;98.20;;;;;;4982997;28;20485;-72
2022/01/18 09:06:13;;;;;;;1.63;1.30;;;7.10;98.20;;;;;;4984166;28;20502;-72
2022/01/18 09:08:41;;;;;;;1.60;1.30;;;7.10;98.20;;;;;;4988020;28;20466;-72
2022/01/18 09:11:09;;;;;;;1.63;1.30;;;7.20;98.20;;;;;;4976868;28;20546;-72
2022/01/18 09:13:36;;;;;;;1.60;1.20;;;7.20;98.20;;;;;;4992110;28;20975;-71
2022/01/18 09:16:06;;;;;;;1.70;1.30;;;7.20;98.20;;;;;;4969492;28;20503;-71
2022/01/18 09:18:33;;;;;;;1.60;1.30;;;7.20;98.20;;;;;;5004846;28;20475;-71
2022/01/18 09:21:00;;;;;;;1.63;1.30;;;7.30;98.20;;;;;;4968568;28;20469;-72
2022/01/18 09:23:26;;;;;;;1.60;1.30;;;7.30;98.20;;;;;;5007353;28;20494;-72
2022/01/18 09:25:53;;;;;;;1.60;1.20;;;7.30;98.20;;;;;;4965699;28;20933;-72
2022/01/18 09:28:20;;;;;;;1.67;1.30;;;7.30;98.20;;;;;;5009972;28;20465;-72
2022/01/18 09:30:47;;;;;;;1.67;1.30;;;7.40;98.20;;;;;;4973303;28;20479;-72
2022/01/18 09:33:16;;;;;;;1.60;1.20;;;7.40;98.20;;;;;;4996335;28;20792;-72
2022/01/18 09:35:43;;;;;;;1.70;1.40;;;7.50;98.20;;;;;;4969472;28;20860;-73
2022/01/18 09:38:10;;;;;;;1.67;1.20;;;7.50;98.20;;;;;;5004824;28;20617;-72
2022/01/18 09:40:43;;;;;;;1.60;1.20;;;7.60;98.20;;;;;;4982570;28;20501;-73
2022/01/18 09:43:12;;;;;;;1.63;1.30;;;7.60;98.20;;;;;;5001333;28;20488;-73
2022/01/18 09:45:41;;;;;;;1.63;1.27;;;7.70;98.20;;;;;;4985996;28;21225;-73
2022/01/18 09:48:09;;;;;;;1.67;1.20;;;7.70;98.20;;;;;;5001529;28;20525;-74
2022/01/18 09:50:39;;;;;;;1.60;1.20;;;7.70;98.20;;;;;;4971760;28;20958;-73
2022/01/18 09:53:08;;;;;;;1.67;1.30;;;7.70;98.20;;;;;;4994234;28;20595;-74
2022/01/18 09:55:36;;;;;;;1.63;1.20;;;7.70;98.20;;;;;;4978420;28;21301;-73
2022/01/18 09:58:06;;;;;;;1.67;1.27;;;7.80;98.20;;;;;;5000726;28;20487;-73
2022/01/18 10:00:34;;;;;;;1.63;1.20;;;7.80;98.20;;;;;;4977974;28;20469;-74
2022/01/18 10:03:01;;;;;;;1.67;1.30;;;7.90;98.20;;;;;;4996688;28;20476;-73
2022/01/18 10:05:30;;;;;;;1.60;1.20;;;7.90;98.20;;;;;;4978775;28;20488;-74
2022/01/18 10:08:03;;;;;;;1.70;1.30;;;7.90;98.20;;;;;;4985302;28;20779;-73
2022/01/18 10:10:46;;;;;;;1.70;1.30;;;8.00;98.20;;;;;;4996395;28;20475;-73
2022/01/18 10:13:18;;;;;;;1.67;1.20;;;8.00;98.20;;;;;;4980046;28;20941;-73
2022/01/18 10:16:03;;;;;;;1.70;1.40;;;8.10;98.20;;;;;;4981995;28;20476;-73
2022/01/18 10:18:47;;;;;;;1.70;1.43;;;8.10;98.20;;;;;;4961026;28;20482;-73
2022/01/18 10:21:24;;;;;;;1.67;1.30;;;8.20;98.20;;;;;;4970568;28;20504;-74
2022/01/18 10:23:54;;;;;;;1.70;1.40;;;8.30;98.20;;;;;;5006647;28;20552;-74
2022/01/18 10:26:23;;;;;;;1.60;1.20;;;8.30;98.20;;;;;;4977808;28;20517;-73
2022/01/18 10:29:00;;;;;;;1.63;1.20;;;8.30;98.20;;;;;;4987870;28;20578;-73
2022/01/18 10:31:33;;;;;;;1.63;1.20;;;8.40;98.20;;;;;;4975328;28;20491;-74
2022/01/18 10:34:28;;;;;;;1.60;1.20;;;8.40;98.20;;;;;;4985848;28;20760;-73
2022/01/18 10:36:59;;;;;;;1.70;1.20;;;8.40;98.20;;;;;;4978901;28;20488;-73
2022/01/18 10:39:29;;;;;;;1.60;1.20;;;8.50;98.20;;;;;;4986969;28;20852;-72
2022/01/18 10:41:57;;;;;;;1.63;1.20;;;8.60;98.20;;;;;;4980718;28;20508;-71
2022/01/18 10:44:24;;;;;;;1.60;1.20;;;8.60;98.20;;;;;;5002227;28;20996;-72
2022/01/18 10:46:54;;;;;;;1.70;1.20;;;8.70;98.20;;;;;;4982325;28;20495;-72
2022/01/18 10:49:35;;;;;;;1.60;1.20;;;8.70;98.20;;;;;;4988886;28;20495;-72
2022/01/18 10:52:05;;;;;;;1.63;1.20;;;8.70;98.20;;;;;;4995092;28;20558;-72
2022/01/18 10:54:50;;;;;;;1.63;1.20;;;8.80;98.20;;;;;;4993522;28;21255;-72
2022/01/18 10:57:20;;;;;;;1.60;1.20;;;8.80;98.20;;;;;;4994575;28;20508;-72
2022/01/18 10:59:46;;;;;;;1.70;1.20;;;8.80;98.20;;;;;;4992953;28;20472;-72
2022/01/18 11:02:17;;;;;;;1.67;1.20;;;8.80;98.20;;;;;;4996920;28;20495;-72
2022/01/18 11:04:47;;;;;;;1.70;1.20;;;8.80;98.20;;;;;;4981001;28;20488;-72
2022/01/18 11:07:15;;;;;;;1.63;1.20;;;8.80;98.20;;;;;;4986042;28;20500;-72
2022/01/18 11:09:44;;;;;;;1.70;1.30;;;8.80;98.20;;;;;;4981363;28;20504;-74
2022/01/18 11:12:11;;;;;;;1.70;1.20;;;8.80;98.20;;;;;;4991099;28;20484;-74
2022/01/18 11:14:43;;;;;;;1.70;1.30;;;8.90;98.20;;;;;;4980655;28;20471;-73
2022/01/18 11:17:13;;;;;;;1.60;1.20;;;8.90;98.20;;;;;;4982770;28;20582;-74
2022/01/18 11:19:40;;;;;;;1.60;1.20;;;9.00;98.20;;;;;;5000025;28;20492;-74
2022/01/18 11:22:10;;;;;;;1.70;1.20;;;9.00;98.20;;;;;;4997149;28;20479;-73
2022/01/18 11:24:40;;;;;;;1.67;1.20;;;9.00;98.20;;;;;;4994241;28;20489;-74
2022/01/18 11:27:12;;;;;;;1.67;1.20;;;9.00;98.20;;;;;;4987913;28;21082;-74
2022/01/18 11:29:39;;;;;;;1.63;1.20;;;9.00;98.20;;;;;;4978172;28;20466;-73
2022/01/18 11:32:07;;;;;;;1.70;1.27;;;9.00;98.20;;;;;;4983376;28;20480;-73
2022/01/18 11:34:44;;;;;;;1.60;1.20;;;9.00;98.20;;;;;;4991747;28;20492;-74
2022/01/18 11:37:18;;;;;;;1.60;1.20;;;9.10;98.20;;;;;;4979263;28;20550;-73
2022/01/18 11:39:45;;;;;;;1.67;1.20;;;9.10;98.20;;;;;;4977803;28;20470;-74
2022/01/18 11:42:14;;;;;;;1.60;1.10;;;9.10;98.20;;;;;;4989074;28;20794;-74
2022/01/18 11:44:42;;;;;;;1.60;1.20;;;9.10;98.20;;;;;;4982285;28;20486;-74
2022/01/18 11:47:09;;;;;;;1.70;1.20;;;9.10;98.20;;;;;;4973051;28;20497;-74
2022/01/18 11:49:44;;;;;;;1.60;1.20;;;9.10;98.20;;;;;;4981663;28;20531;-71
2022/01/18 11:52:33;;;;;;;1.63;1.20;;;9.00;98.20;;;;;;4997820;28;20494;-74
2022/01/18 11:55:00;;;;;;;2.27;2.07;;;9.10;98.20;;;;;;4979230;28;21024;-73
2022/01/18 11:57:38;;;;;;;1.67;1.20;;;9.10;98.20;;;;;;4991702;28;20483;-73
2022/01/18 12:00:27;;;;;;;1.63;1.20;;;9.10;98.20;;;;;;4971623;28;20468;-73
2022/01/18 12:02:56;;;;;;;1.70;1.20;;;9.10;98.20;;;;;;4995136;28;20492;-74
2022/01/18 12:05:25;;;;;;;1.70;1.40;;;9.20;98.20;;;;;;4974889;28;20638;-73
2022/01/18 12:08:03;;;;;;;1.63;1.20;;;9.20;98.20;;;;;;4995423;28;20519;-74
2022/01/18 12:10:47;;;;;;;1.70;1.20;;;9.30;98.20;;;;;;4980506;28;20819;-74
2022/01/18 12:13:33;;;;;;;1.70;1.30;;;9.30;98.20;;;;;;4964319;28;20914;-74
2022/01/18 12:16:03;;;;;;;1.60;1.20;;;9.40;98.20;;;;;;4967850;28;20535;-73
2022/01/18 12:18:31;;;;;;;1.70;1.30;;;9.40;98.20;;;;;;5002041;28;20462;-73
2022/01/18 12:20:59;;;;;;;1.70;1.30;;;9.40;98.20;;;;;;4963816;28;20470;-74
2022/01/18 12:23:27;;;;;;;1.70;1.20;;;9.40;98.20;;;;;;5009374;28;20502;-74
2022/01/18 12:25:58;;;;;;;1.80;1.50;;;9.40;98.20;;;;;;4976562;28;20472;-74
2022/01/18 12:34:40;;;;;;;2.07;1.33;;;9.50;98.20;;;;;;4974570;28;20616;-74
2022/01/18 12:37:39;;;;;;;1.70;1.20;;;9.60;98.20;;;;;;4980854;28;20501;-72
2022/01/18 12:40:11;;;;;;;1.67;1.20;;;9.60;98.20;;;;;;4971439;28;20547;-72
2022/01/18 12:45:33;;;;;;;1.70;1.20;;;9.60;98.20;;;;;;4980091;28;20483;-74
2022/01/18 12:48:02;;;;;;;1.60;1.10;;;9.60;98.20;;;;;;4991600;28;20500;-74
2022/01/18 12:50:31;;;;;;;1.70;1.27;;;9.60;98.20;;;;;;4971264;28;20472;-73
2022/01/18 12:53:00;;;;;;;1.67;1.10;;;9.70;98.20;;;;;;5004358;28;20521;-74
2022/01/18 12:55:29;;;;;;;1.70;1.20;;;9.70;98.20;;;;;;4973680;28;20472;-74
2022/01/18 12:58:02;;;;;;;1.70;1.30;;;9.70;98.20;;;;;;4976515;28;21517;-73
2022/01/18 13:00:30;;;;;;;1.70;1.30;;;9.70;98.20;;;;;;4978236;28;20476;-74
2022/01/18 13:03:00;;;;;;;1.60;1.10;;;9.70;98.20;;;;;;4999546;28;20487;-73
2022/01/18 13:05:39;;;;;;;1.70;1.20;;;9.60;98.20;;;;;;4978348;28;20550;-73
2022/01/18 13:08:07;;;;;;;1.70;1.20;;;9.70;98.20;;;;;;4969974;28;20479;-75
2022/01/18 13:10:39;;;;;;;1.67;1.00;;;9.70;98.20;;;;;;4973132;28;20906;-74
2022/01/18 13:13:08;;;;;;;1.70;1.30;;;9.70;98.20;;;;;;4996625;28;20491;-72
2022/01/18 13:24:23;;;;;;;1.70;1.10;;;9.60;98.20;;;;;;4975957;28;20996;-71
2022/01/18 13:26:55;;;;;;;1.63;1.20;;;9.60;98.20;;;;;;4980944;28;20977;-71
2022/01/18 13:29:24;;;;;;;1.63;1.20;;;9.60;98.20;;;;;;4970630;28;20466;-71
2022/01/18 13:32:07;;;;;;;1.70;1.20;;;9.60;98.20;;;;;;4979531;28;20552;-72
2022/01/18 13:34:36;;;;;;;1.63;1.10;;;9.60;98.20;;;;;;4969512;28;20544;-71
2022/01/18 13:37:07;;;;;;;1.70;1.23;;;9.60;98.20;;;;;;4973140;28;20941;-71
2022/01/18 13:39:37;;;;;;;1.60;1.10;;;9.60;98.20;;;;;;4980052;28;21006;-71
2022/01/18 13:42:05;;;;;;;1.67;1.20;;;9.60;98.20;;;;;;4977924;28;20869;-72
2022/01/18 13:44:33;;;;;;;1.70;1.20;;;9.50;98.20;;;;;;4969972;28;20485;-72
2022/01/18 13:47:15;;;;;;;1.70;1.50;;;9.50;98.20;;;;;;4978825;28;20496;-71
2022/01/18 13:49:42;;;;;;;1.63;1.10;;;9.50;98.20;;;;;;4972827;28;20473;-72
2022/01/18 13:52:10;;;;;;;1.60;1.10;;;9.50;98.20;;;;;;4975105;28;20465;-72
2022/01/18 13:54:45;;;;;;;1.60;1.10;;;9.40;98.20;;;;;;4981192;28;20896;-72
2022/01/18 13:57:12;;;;;;;1.70;1.20;;;9.40;98.20;;;;;;4986203;28;20617;-72
2022/01/18 13:59:39;;;;;;;1.60;1.10;;;9.40;98.20;;;;;;4980051;28;20493;-72
2022/01/18 14:02:17;;;;;;;1.67;1.10;;;9.40;98.20;;;;;;4974925;28;20489;-74
2022/01/18 14:04:45;;;;;;;1.70;1.30;;;9.40;98.20;;;;;;4979227;28;20737;-72
2022/01/18 14:07:13;;;;;;;1.67;1.20;;;9.40;98.20;;;;;;4975559;28;20491;-72
2022/01/18 14:09:40;;;;;;;1.70;1.30;;;9.30;98.20;;;;;;4970677;28;20932;-72
2022/01/18 14:12:17;;;;;;;1.70;1.20;;;9.30;98.20;;;;;;4982513;28;20989;-72
2022/01/18 14:14:43;;;;;;;1.60;1.10;;;9.30;98.20;;;;;;4981262;28;20592;-72
2022/01/18 14:17:14;;;;;;;1.60;1.20;;;9.30;98.20;;;;;;4977598;28;20563;-72
2022/01/18 14:19:44;;;;;;;1.70;1.20;;;9.20;98.20;;;;;;4980478;28;20553;-72